sensor_id;sensor_type;location;lat;lon;timestamp;P1;durP1;ratioP1;P2;durP2;ratioP2
37339;SDS011;23223;51.006;7.610;2024-03-07T00:02:18;30.42;;;19.08;;
37339;SDS011;23223;51.006;7.610;2024-03-07T00:04:44;26.83;;;18.45;;
37339;SDS011;23223;51.006;7.610;2024-03-07T00:07:10;29.25;;;18.77;;
37339;SDS011;23223;51.006;7.610;2024-03-07T00:09:38;30.45;;;19.92;;
37339;SDS011;23223;51.006;7.610;2024-03-07T00:12:04;31.40;;;20.40;;
37339;SDS011;23223;51.006;7.610;2024-03-07T00:14:32;27.55;;;19.25;;
37339;SDS011;23223;51.006;7.610;2024-03-07T00:17:00;36.55;;;20.30;;
37339;SDS011;23223;51.006;7.610;2024-03-07T00:19:26;31.13;;;20.08;;
37339;SDS011;23223;51.006;7.610;2024-03-07T00:21:52;28.98;;;18.58;;
37339;SDS011;23223;51.006;7.610;2024-03-07T00:24:19;31.67;;;20.30;;
37339;SDS011;23223;51.006;7.610;2024-03-07T00:26:45;32.80;;;21.58;;
37339;SDS011;23223;51.006;7.610;2024-03-07T00:29:11;30.38;;;19.63;;
37339;SDS011;23223;51.006;7.610;2024-03-07T00:31:37;33.53;;;20.45;;
37339;SDS011;23223;51.006;7.610;2024-03-07T00:34:02;27.83;;;20.02;;
37339;SDS011;23223;51.006;7.610;2024-03-07T00:36:28;29.08;;;18.40;;
37339;SDS011;23223;51.006;7.610;2024-03-07T00:38:53;28.02;;;19.33;;
37339;SDS011;23223;51.006;7.610;2024-03-07T00:41:19;31.20;;;20.08;;
37339;SDS011;23223;51.006;7.610;2024-03-07T00:43:45;29.90;;;19.10;;
37339;SDS011;23223;51.006;7.610;2024-03-07T00:46:11;34.55;;;19.90;;
37339;SDS011;23223;51.006;7.610;2024-03-07T00:48:37;28.33;;;18.88;;
37339;SDS011;23223;51.006;7.610;2024-03-07T00:51:03;26.88;;;18.50;;
37339;SDS011;23223;51.006;7.610;2024-03-07T00:53:29;29.50;;;19.08;;
37339;SDS011;23223;51.006;7.610;2024-03-07T00:55:56;27.80;;;18.50;;
37339;SDS011;23223;51.006;7.610;2024-03-07T00:58:22;33.65;;;20.08;;
37339;SDS011;23223;51.006;7.610;2024-03-07T01:00:48;31.02;;;18.70;;
37339;SDS011;23223;51.006;7.610;2024-03-07T01:03:14;26.88;;;17.80;;
37339;SDS011;23223;51.006;7.610;2024-03-07T01:05:40;32.65;;;18.75;;
37339;SDS011;23223;51.006;7.610;2024-03-07T01:08:05;27.55;;;18.52;;
37339;SDS011;23223;51.006;7.610;2024-03-07T01:10:31;28.48;;;18.30;;
37339;SDS011;23223;51.006;7.610;2024-03-07T01:12:57;30.80;;;18.88;;
37339;SDS011;23223;51.006;7.610;2024-03-07T01:15:26;30.33;;;19.15;;
37339;SDS011;23223;51.006;7.610;2024-03-07T01:17:55;29.58;;;18.98;;
37339;SDS011;23223;51.006;7.610;2024-03-07T01:20:21;32.38;;;18.80;;
37339;SDS011;23223;51.006;7.610;2024-03-07T01:22:50;35.22;;;21.20;;
37339;SDS011;23223;51.006;7.610;2024-03-07T01:25:16;45.40;;;24.35;;
37339;SDS011;23223;51.006;7.610;2024-03-07T01:27:42;26.88;;;16.95;;
37339;SDS011;23223;51.006;7.610;2024-03-07T01:30:08;37.25;;;21.90;;
37339;SDS011;23223;51.006;7.610;2024-03-07T01:32:34;31.20;;;19.70;;
37339;SDS011;23223;51.006;7.610;2024-03-07T01:34:59;32.42;;;20.45;;
37339;SDS011;23223;51.006;7.610;2024-03-07T01:37:25;33.22;;;20.55;;
37339;SDS011;23223;51.006;7.610;2024-03-07T01:39:52;32.28;;;18.92;;
37339;SDS011;23223;51.006;7.610;2024-03-07T01:42:17;29.70;;;19.00;;
37339;SDS011;23223;51.006;7.610;2024-03-07T01:44:43;35.45;;;20.13;;
37339;SDS011;23223;51.006;7.610;2024-03-07T01:47:09;31.58;;;19.00;;
37339;SDS011;23223;51.006;7.610;2024-03-07T01:49:35;32.40;;;19.02;;
37339;SDS011;23223;51.006;7.610;2024-03-07T01:52:02;34.40;;;20.02;;
37339;SDS011;23223;51.006;7.610;2024-03-07T01:54:30;30.13;;;18.00;;
37339;SDS011;23223;51.006;7.610;2024-03-07T01:56:56;28.98;;;19.02;;
37339;SDS011;23223;51.006;7.610;2024-03-07T01:59:23;30.55;;;19.15;;
37339;SDS011;23223;51.006;7.610;2024-03-07T02:01:50;29.85;;;19.35;;
37339;SDS011;23223;51.006;7.610;2024-03-07T02:04:15;25.55;;;14.68;;
37339;SDS011;23223;51.006;7.610;2024-03-07T02:06:41;33.85;;;18.10;;
37339;SDS011;23223;51.006;7.610;2024-03-07T02:09:07;28.95;;;18.65;;
37339;SDS011;23223;51.006;7.610;2024-03-07T02:11:33;37.17;;;21.00;;
37339;SDS011;23223;51.006;7.610;2024-03-07T02:13:58;31.23;;;18.70;;
37339;SDS011;23223;51.006;7.610;2024-03-07T02:16:24;21.38;;;13.50;;
37339;SDS011;23223;51.006;7.610;2024-03-07T02:18:50;35.55;;;16.75;;
37339;SDS011;23223;51.006;7.610;2024-03-07T02:21:16;23.15;;;14.20;;
37339;SDS011;23223;51.006;7.610;2024-03-07T02:23:42;35.15;;;19.17;;
37339;SDS011;23223;51.006;7.610;2024-03-07T02:26:08;32.83;;;19.80;;
37339;SDS011;23223;51.006;7.610;2024-03-07T02:28:36;29.60;;;18.75;;
37339;SDS011;23223;51.006;7.610;2024-03-07T02:31:02;28.38;;;16.63;;
37339;SDS011;23223;51.006;7.610;2024-03-07T02:33:27;24.90;;;15.68;;
37339;SDS011;23223;51.006;7.610;2024-03-07T02:35:54;28.98;;;18.80;;
37339;SDS011;23223;51.006;7.610;2024-03-07T02:38:20;28.27;;;17.90;;
37339;SDS011;23223;51.006;7.610;2024-03-07T02:40:45;29.60;;;19.10;;
37339;SDS011;23223;51.006;7.610;2024-03-07T02:43:11;29.90;;;17.52;;
37339;SDS011;23223;51.006;7.610;2024-03-07T02:45:37;30.65;;;19.60;;
37339;SDS011;23223;51.006;7.610;2024-03-07T02:48:03;33.78;;;19.27;;
37339;SDS011;23223;51.006;7.610;2024-03-07T02:50:34;29.95;;;18.80;;
37339;SDS011;23223;51.006;7.610;2024-03-07T02:53:05;33.30;;;18.17;;
37339;SDS011;23223;51.006;7.610;2024-03-07T02:55:32;34.13;;;18.85;;
37339;SDS011;23223;51.006;7.610;2024-03-07T02:57:57;32.15;;;19.08;;
37339;SDS011;23223;51.006;7.610;2024-03-07T03:00:24;33.50;;;18.45;;
37339;SDS011;23223;51.006;7.610;2024-03-07T03:02:54;30.60;;;18.17;;
37339;SDS011;23223;51.006;7.610;2024-03-07T03:05:21;29.00;;;17.08;;
37339;SDS011;23223;51.006;7.610;2024-03-07T03:07:47;35.03;;;17.85;;
37339;SDS011;23223;51.006;7.610;2024-03-07T03:10:22;30.40;;;18.42;;
37339;SDS011;23223;51.006;7.610;2024-03-07T03:12:51;31.60;;;18.10;;
37339;SDS011;23223;51.006;7.610;2024-03-07T03:15:18;31.27;;;16.60;;
37339;SDS011;23223;51.006;7.610;2024-03-07T03:17:46;28.50;;;17.65;;
37339;SDS011;23223;51.006;7.610;2024-03-07T03:20:13;25.83;;;15.73;;
37339;SDS011;23223;51.006;7.610;2024-03-07T03:22:54;26.58;;;16.08;;
37339;SDS011;23223;51.006;7.610;2024-03-07T03:25:20;28.10;;;17.02;;
37339;SDS011;23223;51.006;7.610;2024-03-07T03:27:49;30.45;;;17.42;;
37339;SDS011;23223;51.006;7.610;2024-03-07T03:30:15;27.90;;;16.35;;
37339;SDS011;23223;51.006;7.610;2024-03-07T03:32:43;27.25;;;16.35;;
37339;SDS011;23223;51.006;7.610;2024-03-07T03:35:10;32.67;;;17.08;;
37339;SDS011;23223;51.006;7.610;2024-03-07T03:37:39;28.38;;;16.73;;
37339;SDS011;23223;51.006;7.610;2024-03-07T03:40:08;27.55;;;17.77;;
37339;SDS011;23223;51.006;7.610;2024-03-07T03:42:35;30.50;;;16.63;;
37339;SDS011;23223;51.006;7.610;2024-03-07T03:45:02;26.25;;;16.80;;
37339;SDS011;23223;51.006;7.610;2024-03-07T03:47:31;30.30;;;16.75;;
37339;SDS011;23223;51.006;7.610;2024-03-07T03:50:01;29.92;;;16.80;;
37339;SDS011;23223;51.006;7.610;2024-03-07T03:52:27;29.60;;;16.70;;
37339;SDS011;23223;51.006;7.610;2024-03-07T03:54:54;28.40;;;17.05;;
37339;SDS011;23223;51.006;7.610;2024-03-07T03:57:19;27.02;;;15.30;;
37339;SDS011;23223;51.006;7.610;2024-03-07T03:59:45;29.35;;;16.20;;
37339;SDS011;23223;51.006;7.610;2024-03-07T04:02:10;26.08;;;16.58;;
37339;SDS011;23223;51.006;7.610;2024-03-07T04:04:39;28.15;;;16.85;;
37339;SDS011;23223;51.006;7.610;2024-03-07T04:07:05;31.88;;;16.40;;
37339;SDS011;23223;51.006;7.610;2024-03-07T04:09:31;25.40;;;16.63;;
37339;SDS011;23223;51.006;7.610;2024-03-07T04:11:56;31.17;;;17.20;;
37339;SDS011;23223;51.006;7.610;2024-03-07T04:14:25;31.58;;;17.20;;
37339;SDS011;23223;51.006;7.610;2024-03-07T04:16:51;28.63;;;16.80;;
37339;SDS011;23223;51.006;7.610;2024-03-07T04:19:19;17.67;;;9.80;;
37339;SDS011;23223;51.006;7.610;2024-03-07T04:21:45;24.95;;;16.13;;
37339;SDS011;23223;51.006;7.610;2024-03-07T04:24:11;24.23;;;14.73;;
37339;SDS011;23223;51.006;7.610;2024-03-07T04:26:38;27.40;;;17.95;;
37339;SDS011;23223;51.006;7.610;2024-03-07T04:29:06;29.48;;;17.15;;
37339;SDS011;23223;51.006;7.610;2024-03-07T04:31:33;27.38;;;17.63;;
37339;SDS011;23223;51.006;7.610;2024-03-07T04:33:59;28.23;;;17.13;;
37339;SDS011;23223;51.006;7.610;2024-03-07T04:36:25;29.65;;;16.58;;
37339;SDS011;23223;51.006;7.610;2024-03-07T04:38:51;26.65;;;16.95;;
37339;SDS011;23223;51.006;7.610;2024-03-07T04:41:17;27.70;;;17.33;;
37339;SDS011;23223;51.006;7.610;2024-03-07T04:43:43;29.55;;;18.33;;
37339;SDS011;23223;51.006;7.610;2024-03-07T04:46:09;28.90;;;16.95;;
37339;SDS011;23223;51.006;7.610;2024-03-07T04:48:35;31.05;;;18.67;;
37339;SDS011;23223;51.006;7.610;2024-03-07T04:51:03;39.92;;;19.95;;
37339;SDS011;23223;51.006;7.610;2024-03-07T04:53:29;31.98;;;18.25;;
37339;SDS011;23223;51.006;7.610;2024-03-07T04:55:54;30.58;;;18.90;;
37339;SDS011;23223;51.006;7.610;2024-03-07T04:58:21;29.88;;;18.65;;
37339;SDS011;23223;51.006;7.610;2024-03-07T05:00:46;34.25;;;19.75;;
37339;SDS011;23223;51.006;7.610;2024-03-07T05:03:12;31.55;;;18.83;;
37339;SDS011;23223;51.006;7.610;2024-03-07T05:05:37;33.97;;;19.83;;
37339;SDS011;23223;51.006;7.610;2024-03-07T05:08:03;35.58;;;20.02;;
37339;SDS011;23223;51.006;7.610;2024-03-07T05:10:29;37.67;;;19.27;;
37339;SDS011;23223;51.006;7.610;2024-03-07T05:12:55;34.65;;;19.88;;
37339;SDS011;23223;51.006;7.610;2024-03-07T05:15:23;32.58;;;19.75;;
37339;SDS011;23223;51.006;7.610;2024-03-07T05:17:52;37.85;;;19.17;;
37339;SDS011;23223;51.006;7.610;2024-03-07T05:20:17;44.05;;;20.98;;
37339;SDS011;23223;51.006;7.610;2024-03-07T05:22:43;44.72;;;21.48;;
37339;SDS011;23223;51.006;7.610;2024-03-07T05:25:13;42.40;;;21.77;;
37339;SDS011;23223;51.006;7.610;2024-03-07T05:27:38;36.22;;;20.55;;
37339;SDS011;23223;51.006;7.610;2024-03-07T05:30:04;43.45;;;22.42;;
37339;SDS011;23223;51.006;7.610;2024-03-07T05:32:31;38.42;;;20.17;;
37339;SDS011;23223;51.006;7.610;2024-03-07T05:34:59;42.13;;;20.55;;
37339;SDS011;23223;51.006;7.610;2024-03-07T05:37:25;36.45;;;22.05;;
37339;SDS011;23223;51.006;7.610;2024-03-07T05:39:50;37.97;;;20.00;;
37339;SDS011;23223;51.006;7.610;2024-03-07T05:42:17;35.75;;;20.55;;
37339;SDS011;23223;51.006;7.610;2024-03-07T05:44:43;40.42;;;21.83;;
37339;SDS011;23223;51.006;7.610;2024-03-07T05:47:09;39.75;;;22.48;;
37339;SDS011;23223;51.006;7.610;2024-03-07T05:49:35;43.08;;;21.35;;
37339;SDS011;23223;51.006;7.610;2024-03-07T05:52:02;42.10;;;22.55;;
37339;SDS011;23223;51.006;7.610;2024-03-07T05:54:28;38.70;;;21.65;;
37339;SDS011;23223;51.006;7.610;2024-03-07T05:56:54;45.55;;;23.05;;
37339;SDS011;23223;51.006;7.610;2024-03-07T05:59:20;35.10;;;19.67;;
37339;SDS011;23223;51.006;7.610;2024-03-07T06:01:46;49.38;;;22.45;;
37339;SDS011;23223;51.006;7.610;2024-03-07T06:04:13;48.58;;;23.13;;
37339;SDS011;23223;51.006;7.610;2024-03-07T06:06:40;48.55;;;23.50;;
37339;SDS011;23223;51.006;7.610;2024-03-07T06:09:07;44.08;;;21.58;;
37339;SDS011;23223;51.006;7.610;2024-03-07T06:11:34;42.40;;;24.23;;
37339;SDS011;23223;51.006;7.610;2024-03-07T06:14:03;45.67;;;22.15;;
37339;SDS011;23223;51.006;7.610;2024-03-07T06:16:35;49.17;;;23.70;;
37339;SDS011;23223;51.006;7.610;2024-03-07T06:19:01;45.63;;;23.65;;
37339;SDS011;23223;51.006;7.610;2024-03-07T06:21:28;43.30;;;23.42;;
37339;SDS011;23223;51.006;7.610;2024-03-07T06:23:57;54.85;;;24.77;;
37339;SDS011;23223;51.006;7.610;2024-03-07T06:26:29;49.03;;;26.67;;
37339;SDS011;23223;51.006;7.610;2024-03-07T06:29:15;41.97;;;24.25;;
37339;SDS011;23223;51.006;7.610;2024-03-07T06:31:41;53.25;;;23.83;;
37339;SDS011;23223;51.006;7.610;2024-03-07T06:34:07;51.67;;;24.85;;
37339;SDS011;23223;51.006;7.610;2024-03-07T06:36:34;55.28;;;33.80;;
37339;SDS011;23223;51.006;7.610;2024-03-07T06:39:00;48.72;;;27.80;;
37339;SDS011;23223;51.006;7.610;2024-03-07T06:41:25;44.97;;;25.98;;
37339;SDS011;23223;51.006;7.610;2024-03-07T06:43:51;45.30;;;25.90;;
37339;SDS011;23223;51.006;7.610;2024-03-07T06:46:20;45.15;;;23.25;;
37339;SDS011;23223;51.006;7.610;2024-03-07T06:48:46;45.47;;;24.05;;
37339;SDS011;23223;51.006;7.610;2024-03-07T06:51:11;38.90;;;21.25;;
37339;SDS011;23223;51.006;7.610;2024-03-07T06:53:38;34.22;;;20.10;;
37339;SDS011;23223;51.006;7.610;2024-03-07T06:56:04;40.20;;;22.60;;
37339;SDS011;23223;51.006;7.610;2024-03-07T06:58:31;34.60;;;20.02;;
37339;SDS011;23223;51.006;7.610;2024-03-07T07:00:57;38.97;;;18.55;;
37339;SDS011;23223;51.006;7.610;2024-03-07T07:03:26;36.03;;;19.45;;
37339;SDS011;23223;51.006;7.610;2024-03-07T07:05:54;35.58;;;19.17;;
37339;SDS011;23223;51.006;7.610;2024-03-07T07:08:20;35.65;;;20.30;;
37339;SDS011;23223;51.006;7.610;2024-03-07T07:10:47;37.65;;;21.17;;
37339;SDS011;23223;51.006;7.610;2024-03-07T07:13:12;36.95;;;21.17;;
37339;SDS011;23223;51.006;7.610;2024-03-07T07:15:38;36.35;;;20.75;;
37339;SDS011;23223;51.006;7.610;2024-03-07T07:18:04;36.33;;;19.73;;
37339;SDS011;23223;51.006;7.610;2024-03-07T07:20:32;41.47;;;23.17;;
37339;SDS011;23223;51.006;7.610;2024-03-07T07:23:01;33.70;;;19.25;;
37339;SDS011;23223;51.006;7.610;2024-03-07T07:25:28;34.20;;;19.25;;
37339;SDS011;23223;51.006;7.610;2024-03-07T07:27:57;34.97;;;17.65;;
37339;SDS011;23223;51.006;7.610;2024-03-07T07:30:23;29.95;;;18.10;;
37339;SDS011;23223;51.006;7.610;2024-03-07T07:32:49;32.85;;;18.10;;
37339;SDS011;23223;51.006;7.610;2024-03-07T07:35:16;30.85;;;16.30;;
37339;SDS011;23223;51.006;7.610;2024-03-07T07:37:42;28.23;;;16.13;;
37339;SDS011;23223;51.006;7.610;2024-03-07T07:40:16;20.50;;;13.45;;
37339;SDS011;23223;51.006;7.610;2024-03-07T07:42:47;22.60;;;14.95;;
37339;SDS011;23223;51.006;7.610;2024-03-07T07:45:14;32.40;;;17.02;;
37339;SDS011;23223;51.006;7.610;2024-03-07T07:47:41;35.65;;;25.63;;
37339;SDS011;23223;51.006;7.610;2024-03-07T07:50:12;39.92;;;24.05;;
37339;SDS011;23223;51.006;7.610;2024-03-07T07:52:55;51.33;;;32.95;;
37339;SDS011;23223;51.006;7.610;2024-03-07T07:55:22;40.83;;;31.60;;
37339;SDS011;23223;51.006;7.610;2024-03-07T07:57:53;36.38;;;27.88;;
37339;SDS011;23223;51.006;7.610;2024-03-07T08:00:21;32.67;;;21.42;;
37339;SDS011;23223;51.006;7.610;2024-03-07T08:05:26;32.75;;;19.80;;
37339;SDS011;23223;51.006;7.610;2024-03-07T08:07:54;34.50;;;22.58;;
37339;SDS011;23223;51.006;7.610;2024-03-07T08:10:23;33.20;;;20.83;;
37339;SDS011;23223;51.006;7.610;2024-03-07T08:12:49;40.15;;;18.92;;
37339;SDS011;23223;51.006;7.610;2024-03-07T08:15:15;35.50;;;20.48;;
37339;SDS011;23223;51.006;7.610;2024-03-07T08:17:44;32.85;;;20.65;;
37339;SDS011;23223;51.006;7.610;2024-03-07T08:20:12;33.72;;;20.15;;
37339;SDS011;23223;51.006;7.610;2024-03-07T08:22:39;31.10;;;18.67;;
37339;SDS011;23223;51.006;7.610;2024-03-07T08:25:09;27.27;;;17.67;;
37339;SDS011;23223;51.006;7.610;2024-03-07T08:27:36;15.13;;;10.07;;
37339;SDS011;23223;51.006;7.610;2024-03-07T08:30:03;25.65;;;17.85;;
37339;SDS011;23223;51.006;7.610;2024-03-07T08:32:35;27.90;;;19.77;;
37339;SDS011;23223;51.006;7.610;2024-03-07T08:35:02;32.00;;;19.00;;
37339;SDS011;23223;51.006;7.610;2024-03-07T08:37:31;71.28;;;39.88;;
37339;SDS011;23223;51.006;7.610;2024-03-07T08:39:59;89.38;;;49.60;;
37339;SDS011;23223;51.006;7.610;2024-03-07T08:42:26;34.90;;;21.52;;
37339;SDS011;23223;51.006;7.610;2024-03-07T08:44:52;34.13;;;20.73;;
37339;SDS011;23223;51.006;7.610;2024-03-07T08:47:17;36.50;;;24.05;;
37339;SDS011;23223;51.006;7.610;2024-03-07T08:49:43;30.75;;;18.55;;
37339;SDS011;23223;51.006;7.610;2024-03-07T08:52:08;41.88;;;21.08;;
37339;SDS011;23223;51.006;7.610;2024-03-07T08:54:34;27.33;;;18.88;;
37339;SDS011;23223;51.006;7.610;2024-03-07T08:57:00;29.80;;;18.85;;
37339;SDS011;23223;51.006;7.610;2024-03-07T08:59:25;32.67;;;19.20;;
37339;SDS011;23223;51.006;7.610;2024-03-07T09:01:51;32.05;;;20.02;;
37339;SDS011;23223;51.006;7.610;2024-03-07T09:04:17;35.63;;;20.55;;
37339;SDS011;23223;51.006;7.610;2024-03-07T09:06:43;30.05;;;18.73;;
37339;SDS011;23223;51.006;7.610;2024-03-07T09:09:10;33.72;;;18.50;;
37339;SDS011;23223;51.006;7.610;2024-03-07T09:11:36;35.55;;;18.65;;
37339;SDS011;23223;51.006;7.610;2024-03-07T09:14:02;27.15;;;15.55;;
37339;SDS011;23223;51.006;7.610;2024-03-07T09:16:32;29.10;;;17.25;;
37339;SDS011;23223;51.006;7.610;2024-03-07T09:18:57;26.20;;;16.75;;
37339;SDS011;23223;51.006;7.610;2024-03-07T09:21:23;20.25;;;13.30;;
37339;SDS011;23223;51.006;7.610;2024-03-07T09:23:48;23.90;;;16.13;;
37339;SDS011;23223;51.006;7.610;2024-03-07T09:26:14;34.67;;;16.55;;
37339;SDS011;23223;51.006;7.610;2024-03-07T09:28:40;24.60;;;14.85;;
37339;SDS011;23223;51.006;7.610;2024-03-07T09:31:05;27.33;;;15.77;;
37339;SDS011;23223;51.006;7.610;2024-03-07T09:33:31;19.92;;;11.88;;
37339;SDS011;23223;51.006;7.610;2024-03-07T09:35:56;29.55;;;15.70;;
37339;SDS011;23223;51.006;7.610;2024-03-07T09:38:23;26.27;;;15.20;;
37339;SDS011;23223;51.006;7.610;2024-03-07T09:40:49;21.35;;;12.38;;
37339;SDS011;23223;51.006;7.610;2024-03-07T09:43:14;24.58;;;14.52;;
37339;SDS011;23223;51.006;7.610;2024-03-07T09:45:44;25.42;;;15.70;;
37339;SDS011;23223;51.006;7.610;2024-03-07T09:48:12;21.40;;;13.18;;
37339;SDS011;23223;51.006;7.610;2024-03-07T09:50:38;20.83;;;13.70;;
37339;SDS011;23223;51.006;7.610;2024-03-07T09:53:05;21.45;;;13.90;;
37339;SDS011;23223;51.006;7.610;2024-03-07T09:55:31;22.95;;;12.95;;
37339;SDS011;23223;51.006;7.610;2024-03-07T09:57:58;22.80;;;13.13;;
37339;SDS011;23223;51.006;7.610;2024-03-07T10:00:25;25.17;;;14.20;;
37339;SDS011;23223;51.006;7.610;2024-03-07T10:02:59;22.83;;;13.55;;
37339;SDS011;23223;51.006;7.610;2024-03-07T10:05:30;22.30;;;11.73;;
37339;SDS011;23223;51.006;7.610;2024-03-07T10:07:56;21.02;;;12.68;;
37339;SDS011;23223;51.006;7.610;2024-03-07T10:10:22;22.35;;;13.13;;
37339;SDS011;23223;51.006;7.610;2024-03-07T10:12:51;17.67;;;12.15;;
37339;SDS011;23223;51.006;7.610;2024-03-07T10:15:22;25.02;;;14.02;;
37339;SDS011;23223;51.006;7.610;2024-03-07T10:17:55;27.38;;;16.38;;
37339;SDS011;23223;51.006;7.610;2024-03-07T10:20:21;21.17;;;11.77;;
37339;SDS011;23223;51.006;7.610;2024-03-07T10:22:47;16.15;;;10.43;;
37339;SDS011;23223;51.006;7.610;2024-03-07T10:25:20;18.75;;;12.00;;
37339;SDS011;23223;51.006;7.610;2024-03-07T10:27:55;17.05;;;10.88;;
37339;SDS011;23223;51.006;7.610;2024-03-07T10:30:22;26.95;;;12.80;;
37339;SDS011;23223;51.006;7.610;2024-03-07T10:32:48;23.20;;;13.32;;
37339;SDS011;23223;51.006;7.610;2024-03-07T10:35:23;12.35;;;8.43;;
37339;SDS011;23223;51.006;7.610;2024-03-07T10:37:52;16.75;;;11.30;;
37339;SDS011;23223;51.006;7.610;2024-03-07T10:40:19;15.00;;;9.57;;
37339;SDS011;23223;51.006;7.610;2024-03-07T10:42:47;12.77;;;9.32;;
37339;SDS011;23223;51.006;7.610;2024-03-07T10:45:19;17.13;;;12.13;;
37339;SDS011;23223;51.006;7.610;2024-03-07T10:47:47;25.80;;;13.05;;
37339;SDS011;23223;51.006;7.610;2024-03-07T10:50:29;21.23;;;8.90;;
37339;SDS011;23223;51.006;7.610;2024-03-07T10:56:12;16.17;;;9.43;;
37339;SDS011;23223;51.006;7.610;2024-03-07T10:58:58;19.60;;;13.50;;
37339;SDS011;23223;51.006;7.610;2024-03-07T11:01:57;15.20;;;9.02;;
37339;SDS011;23223;51.006;7.610;2024-03-07T11:04:45;17.60;;;7.85;;
37339;SDS011;23223;51.006;7.610;2024-03-07T11:07:13;12.27;;;7.18;;
37339;SDS011;23223;51.006;7.610;2024-03-07T11:09:42;11.73;;;6.93;;
37339;SDS011;23223;51.006;7.610;2024-03-07T11:12:11;13.98;;;9.70;;
37339;SDS011;23223;51.006;7.610;2024-03-07T11:14:38;15.85;;;11.02;;
37339;SDS011;23223;51.006;7.610;2024-03-07T11:17:05;17.00;;;11.57;;
37339;SDS011;23223;51.006;7.610;2024-03-07T11:19:32;19.23;;;12.60;;
37339;SDS011;23223;51.006;7.610;2024-03-07T11:22:02;12.57;;;9.48;;
37339;SDS011;23223;51.006;7.610;2024-03-07T11:24:39;17.05;;;9.00;;
37339;SDS011;23223;51.006;7.610;2024-03-07T11:27:04;14.15;;;10.45;;
37339;SDS011;23223;51.006;7.610;2024-03-07T11:29:46;14.65;;;11.60;;
37339;SDS011;23223;51.006;7.610;2024-03-07T11:32:18;13.38;;;9.45;;
37339;SDS011;23223;51.006;7.610;2024-03-07T11:34:48;15.38;;;11.75;;
37339;SDS011;23223;51.006;7.610;2024-03-07T11:37:17;18.17;;;10.93;;
37339;SDS011;23223;51.006;7.610;2024-03-07T11:40:02;14.98;;;8.18;;
37339;SDS011;23223;51.006;7.610;2024-03-07T11:42:33;17.15;;;9.93;;
37339;SDS011;23223;51.006;7.610;2024-03-07T11:45:00;13.95;;;8.88;;
37339;SDS011;23223;51.006;7.610;2024-03-07T11:47:36;16.80;;;12.57;;
37339;SDS011;23223;51.006;7.610;2024-03-07T11:50:03;16.17;;;11.55;;
37339;SDS011;23223;51.006;7.610;2024-03-07T11:52:33;15.48;;;10.80;;
37339;SDS011;23223;51.006;7.610;2024-03-07T11:55:01;17.52;;;12.20;;
37339;SDS011;23223;51.006;7.610;2024-03-07T11:57:30;14.75;;;10.55;;
37339;SDS011;23223;51.006;7.610;2024-03-07T11:59:59;12.90;;;9.13;;
37339;SDS011;23223;51.006;7.610;2024-03-07T12:02:26;18.70;;;12.07;;
37339;SDS011;23223;51.006;7.610;2024-03-07T12:04:53;16.23;;;10.00;;
37339;SDS011;23223;51.006;7.610;2024-03-07T12:07:19;13.88;;;7.82;;
37339;SDS011;23223;51.006;7.610;2024-03-07T12:09:47;11.27;;;7.40;;
37339;SDS011;23223;51.006;7.610;2024-03-07T12:12:19;14.73;;;11.02;;
37339;SDS011;23223;51.006;7.610;2024-03-07T12:14:50;15.40;;;9.82;;
37339;SDS011;23223;51.006;7.610;2024-03-07T12:17:19;14.13;;;8.48;;
37339;SDS011;23223;51.006;7.610;2024-03-07T12:19:46;11.07;;;7.50;;
37339;SDS011;23223;51.006;7.610;2024-03-07T12:22:12;15.10;;;9.50;;
37339;SDS011;23223;51.006;7.610;2024-03-07T12:24:41;18.23;;;13.80;;
37339;SDS011;23223;51.006;7.610;2024-03-07T12:27:10;15.07;;;9.68;;
37339;SDS011;23223;51.006;7.610;2024-03-07T12:29:38;15.50;;;10.60;;
37339;SDS011;23223;51.006;7.610;2024-03-07T12:32:07;11.00;;;7.25;;
37339;SDS011;23223;51.006;7.610;2024-03-07T12:34:35;15.35;;;7.97;;
37339;SDS011;23223;51.006;7.610;2024-03-07T12:37:05;16.13;;;9.45;;
37339;SDS011;23223;51.006;7.610;2024-03-07T12:39:32;15.52;;;9.27;;
37339;SDS011;23223;51.006;7.610;2024-03-07T12:42:04;12.40;;;8.20;;
37339;SDS011;23223;51.006;7.610;2024-03-07T12:44:40;15.80;;;8.70;;
37339;SDS011;23223;51.006;7.610;2024-03-07T12:47:14;15.20;;;9.18;;
37339;SDS011;23223;51.006;7.610;2024-03-07T12:49:40;13.15;;;8.85;;
37339;SDS011;23223;51.006;7.610;2024-03-07T12:52:07;14.07;;;9.80;;
37339;SDS011;23223;51.006;7.610;2024-03-07T12:54:36;12.93;;;10.10;;
37339;SDS011;23223;51.006;7.610;2024-03-07T12:57:08;15.77;;;11.30;;
37339;SDS011;23223;51.006;7.610;2024-03-07T12:59:40;13.40;;;10.82;;
37339;SDS011;23223;51.006;7.610;2024-03-07T13:02:09;12.85;;;9.13;;
37339;SDS011;23223;51.006;7.610;2024-03-07T13:04:36;15.00;;;9.75;;
37339;SDS011;23223;51.006;7.610;2024-03-07T13:07:05;17.30;;;10.60;;
37339;SDS011;23223;51.006;7.610;2024-03-07T13:09:31;13.45;;;9.68;;
37339;SDS011;23223;51.006;7.610;2024-03-07T13:11:57;13.48;;;7.88;;
37339;SDS011;23223;51.006;7.610;2024-03-07T13:14:26;7.88;;;4.95;;
37339;SDS011;23223;51.006;7.610;2024-03-07T13:16:58;10.70;;;8.40;;
37339;SDS011;23223;51.006;7.610;2024-03-07T13:19:25;13.90;;;8.50;;
37339;SDS011;23223;51.006;7.610;2024-03-07T13:21:51;14.10;;;9.02;;
37339;SDS011;23223;51.006;7.610;2024-03-07T13:24:18;11.50;;;7.05;;
37339;SDS011;23223;51.006;7.610;2024-03-07T13:26:45;16.13;;;8.32;;
37339;SDS011;23223;51.006;7.610;2024-03-07T13:29:13;12.63;;;9.20;;
37339;SDS011;23223;51.006;7.610;2024-03-07T13:31:39;15.50;;;9.98;;
37339;SDS011;23223;51.006;7.610;2024-03-07T13:34:07;15.27;;;8.00;;
37339;SDS011;23223;51.006;7.610;2024-03-07T13:36:38;18.95;;;10.57;;
37339;SDS011;23223;51.006;7.610;2024-03-07T13:39:08;12.45;;;7.60;;
37339;SDS011;23223;51.006;7.610;2024-03-07T13:41:45;15.23;;;9.52;;
37339;SDS011;23223;51.006;7.610;2024-03-07T13:44:13;16.13;;;7.00;;
37339;SDS011;23223;51.006;7.610;2024-03-07T13:46:39;11.32;;;7.07;;
37339;SDS011;23223;51.006;7.610;2024-03-07T13:49:05;11.85;;;6.93;;
37339;SDS011;23223;51.006;7.610;2024-03-07T13:51:42;11.75;;;7.45;;
37339;SDS011;23223;51.006;7.610;2024-03-07T13:54:28;6.03;;;3.95;;
37339;SDS011;23223;51.006;7.610;2024-03-07T13:59:56;14.52;;;10.23;;
37339;SDS011;23223;51.006;7.610;2024-03-07T14:23:04;19.83;;;11.73;;
37339;SDS011;23223;51.006;7.610;2024-03-07T14:29:09;15.93;;;8.13;;
37339;SDS011;23223;51.006;7.610;2024-03-07T14:31:47;16.65;;;7.97;;
37339;SDS011;23223;51.006;7.610;2024-03-07T14:36:49;17.00;;;10.93;;
37339;SDS011;23223;51.006;7.610;2024-03-07T14:39:22;23.55;;;11.05;;
37339;SDS011;23223;51.006;7.610;2024-03-07T14:44:17;16.95;;;8.52;;
37339;SDS011;23223;51.006;7.610;2024-03-07T14:46:44;18.52;;;10.15;;
37339;SDS011;23223;51.006;7.610;2024-03-07T14:49:13;16.65;;;8.80;;
37339;SDS011;23223;51.006;7.610;2024-03-07T14:51:41;16.27;;;10.10;;
37339;SDS011;23223;51.006;7.610;2024-03-07T14:54:07;15.82;;;8.75;;
37339;SDS011;23223;51.006;7.610;2024-03-07T14:56:34;17.85;;;9.88;;
37339;SDS011;23223;51.006;7.610;2024-03-07T14:58:59;18.55;;;9.35;;
37339;SDS011;23223;51.006;7.610;2024-03-07T15:01:31;17.08;;;10.30;;
37339;SDS011;23223;51.006;7.610;2024-03-07T15:03:59;16.13;;;9.85;;
37339;SDS011;23223;51.006;7.610;2024-03-07T15:06:25;20.45;;;12.98;;